sensor_id;sensor_type;location;lat;lon;timestamp;P1;durP1;ratioP1;P2;durP2;ratioP2
41253;SDS011;26987;59.928;30.306;2022-11-20T00:01:17;5.03;;;1.75;;
41253;SDS011;26987;59.928;30.306;2022-11-20T00:03:46;4.13;;;1.80;;
41253;SDS011;26987;59.928;30.306;2022-11-20T00:06:15;4.15;;;1.80;;
41253;SDS011;26987;59.928;30.306;2022-11-20T00:08:44;3.90;;;1.67;;
41253;SDS011;26987;59.928;30.306;2022-11-20T00:11:13;6.20;;;1.48;;
41253;SDS011;26987;59.928;30.306;2022-11-20T00:13:43;4.85;;;1.60;;
41253;SDS011;26987;59.928;30.306;2022-11-20T00:16:12;5.05;;;2.10;;
41253;SDS011;26987;59.928;30.306;2022-11-20T00:18:41;2.35;;;1.45;;
41253;SDS011;26987;59.928;30.306;2022-11-20T00:21:10;3.10;;;1.30;;
41253;SDS011;26987;59.928;30.306;2022-11-20T00:23:39;3.78;;;1.23;;
41253;SDS011;26987;59.928;30.306;2022-11-20T00:26:08;3.50;;;1.55;;
41253;SDS011;26987;59.928;30.306;2022-11-20T00:28:36;4.47;;;1.95;;
41253;SDS011;26987;59.928;30.306;2022-11-20T00:31:05;5.15;;;1.55;;
41253;SDS011;26987;59.928;30.306;2022-11-20T00:33:35;3.42;;;1.67;;
41253;SDS011;26987;59.928;30.306;2022-11-20T00:36:04;4.55;;;1.48;;
41253;SDS011;26987;59.928;30.306;2022-11-20T00:38:34;5.97;;;1.40;;
41253;SDS011;26987;59.928;30.306;2022-11-20T00:41:03;3.70;;;1.40;;
41253;SDS011;26987;59.928;30.306;2022-11-20T00:43:32;5.30;;;1.58;;
41253;SDS011;26987;59.928;30.306;2022-11-20T00:46:00;5.70;;;1.98;;
41253;SDS011;26987;59.928;30.306;2022-11-20T00:48:29;4.30;;;1.38;;
41253;SDS011;26987;59.928;30.306;2022-11-20T00:50:58;1.98;;;1.00;;
41253;SDS011;26987;59.928;30.306;2022-11-20T00:53:27;3.88;;;1.67;;
41253;SDS011;26987;59.928;30.306;2022-11-20T00:55:54;5.32;;;1.65;;
41253;SDS011;26987;59.928;30.306;2022-11-20T00:58:23;4.30;;;1.73;;
41253;SDS011;26987;59.928;30.306;2022-11-20T01:00:51;3.83;;;1.58;;
41253;SDS011;26987;59.928;30.306;2022-11-20T01:03:19;4.70;;;1.58;;
41253;SDS011;26987;59.928;30.306;2022-11-20T01:05:47;3.45;;;1.38;;
41253;SDS011;26987;59.928;30.306;2022-11-20T01:08:16;2.90;;;1.35;;
41253;SDS011;26987;59.928;30.306;2022-11-20T01:10:43;4.35;;;1.50;;
41253;SDS011;26987;59.928;30.306;2022-11-20T01:13:11;2.38;;;1.15;;
41253;SDS011;26987;59.928;30.306;2022-11-20T01:16:01;3.03;;;1.27;;
41253;SDS011;26987;59.928;30.306;2022-11-20T01:18:29;4.28;;;1.73;;
41253;SDS011;26987;59.928;30.306;2022-11-20T01:20:59;4.68;;;1.70;;
41253;SDS011;26987;59.928;30.306;2022-11-20T01:23:31;6.55;;;1.20;;
41253;SDS011;26987;59.928;30.306;2022-11-20T01:26:00;3.50;;;1.55;;
41253;SDS011;26987;59.928;30.306;2022-11-20T01:28:29;4.43;;;1.60;;
41253;SDS011;26987;59.928;30.306;2022-11-20T01:30:57;4.05;;;1.65;;
41253;SDS011;26987;59.928;30.306;2022-11-20T01:33:25;3.00;;;1.13;;
41253;SDS011;26987;59.928;30.306;2022-11-20T01:36:02;3.58;;;1.05;;
41253;SDS011;26987;59.928;30.306;2022-11-20T01:38:33;3.80;;;1.45;;
41253;SDS011;26987;59.928;30.306;2022-11-20T01:41:01;7.13;;;2.13;;
41253;SDS011;26987;59.928;30.306;2022-11-20T01:43:29;4.00;;;1.30;;
41253;SDS011;26987;59.928;30.306;2022-11-20T01:46:05;3.15;;;1.60;;
41253;SDS011;26987;59.928;30.306;2022-11-20T01:48:43;4.40;;;1.60;;
41253;SDS011;26987;59.928;30.306;2022-11-20T01:51:17;6.97;;;1.40;;
41253;SDS011;26987;59.928;30.306;2022-11-20T01:53:51;5.13;;;1.90;;
41253;SDS011;26987;59.928;30.306;2022-11-20T01:56:21;4.65;;;1.55;;
41253;SDS011;26987;59.928;30.306;2022-11-20T01:58:50;4.20;;;1.67;;
41253;SDS011;26987;59.928;30.306;2022-11-20T02:01:21;4.38;;;1.48;;
41253;SDS011;26987;59.928;30.306;2022-11-20T02:03:49;3.53;;;1.45;;
41253;SDS011;26987;59.928;30.306;2022-11-20T02:06:19;4.00;;;1.80;;
41253;SDS011;26987;59.928;30.306;2022-11-20T02:08:52;2.40;;;1.42;;
41253;SDS011;26987;59.928;30.306;2022-11-20T02:11:21;4.25;;;1.92;;
41253;SDS011;26987;59.928;30.306;2022-11-20T02:13:48;3.65;;;1.30;;
41253;SDS011;26987;59.928;30.306;2022-11-20T02:16:18;4.55;;;1.17;;
41253;SDS011;26987;59.928;30.306;2022-11-20T02:18:49;4.40;;;1.65;;
41253;SDS011;26987;59.928;30.306;2022-11-20T02:24:09;2.70;;;1.40;;
41253;SDS011;26987;59.928;30.306;2022-11-20T02:26:41;5.30;;;1.88;;
41253;SDS011;26987;59.928;30.306;2022-11-20T02:29:13;3.00;;;1.40;;
41253;SDS011;26987;59.928;30.306;2022-11-20T02:31:43;4.40;;;1.73;;
41253;SDS011;26987;59.928;30.306;2022-11-20T02:34:12;2.40;;;1.02;;
41253;SDS011;26987;59.928;30.306;2022-11-20T02:36:40;2.78;;;1.40;;
41253;SDS011;26987;59.928;30.306;2022-11-20T02:39:10;2.65;;;1.40;;
41253;SDS011;26987;59.928;30.306;2022-11-20T02:41:42;3.25;;;1.60;;
41253;SDS011;26987;59.928;30.306;2022-11-20T02:44:10;5.40;;;1.88;;
41253;SDS011;26987;59.928;30.306;2022-11-20T02:46:38;4.93;;;1.40;;
41253;SDS011;26987;59.928;30.306;2022-11-20T02:49:05;6.80;;;1.20;;
41253;SDS011;26987;59.928;30.306;2022-11-20T02:51:33;3.42;;;1.77;;
41253;SDS011;26987;59.928;30.306;2022-11-20T02:54:01;5.47;;;1.70;;
41253;SDS011;26987;59.928;30.306;2022-11-20T02:56:30;6.93;;;2.17;;
41253;SDS011;26987;59.928;30.306;2022-11-20T02:58:58;7.60;;;1.15;;
41253;SDS011;26987;59.928;30.306;2022-11-20T03:01:25;4.50;;;1.45;;
41253;SDS011;26987;59.928;30.306;2022-11-20T03:03:53;2.70;;;1.35;;
41253;SDS011;26987;59.928;30.306;2022-11-20T03:06:21;7.45;;;2.08;;
41253;SDS011;26987;59.928;30.306;2022-11-20T03:08:49;2.95;;;1.35;;
41253;SDS011;26987;59.928;30.306;2022-11-20T03:11:17;8.82;;;2.65;;
41253;SDS011;26987;59.928;30.306;2022-11-20T03:13:46;3.13;;;1.45;;
41253;SDS011;26987;59.928;30.306;2022-11-20T03:16:14;8.93;;;2.15;;
41253;SDS011;26987;59.928;30.306;2022-11-20T03:18:43;4.88;;;2.15;;
41253;SDS011;26987;59.928;30.306;2022-11-20T03:21:11;3.40;;;1.50;;
41253;SDS011;26987;59.928;30.306;2022-11-20T03:23:40;4.90;;;1.60;;
41253;SDS011;26987;59.928;30.306;2022-11-20T03:26:12;3.42;;;1.45;;
41253;SDS011;26987;59.928;30.306;2022-11-20T03:28:41;4.25;;;1.50;;
41253;SDS011;26987;59.928;30.306;2022-11-20T03:31:11;7.20;;;1.50;;
41253;SDS011;26987;59.928;30.306;2022-11-20T03:33:41;4.95;;;1.63;;
41253;SDS011;26987;59.928;30.306;2022-11-20T03:36:10;7.90;;;2.20;;
41253;SDS011;26987;59.928;30.306;2022-11-20T03:38:39;5.25;;;2.30;;
41253;SDS011;26987;59.928;30.306;2022-11-20T03:41:08;7.38;;;2.40;;
41253;SDS011;26987;59.928;30.306;2022-11-20T03:43:38;7.63;;;1.98;;
41253;SDS011;26987;59.928;30.306;2022-11-20T03:46:06;4.85;;;1.40;;
41253;SDS011;26987;59.928;30.306;2022-11-20T03:48:36;5.00;;;1.73;;
41253;SDS011;26987;59.928;30.306;2022-11-20T03:51:07;3.58;;;1.88;;
41253;SDS011;26987;59.928;30.306;2022-11-20T03:53:36;3.47;;;1.42;;
41253;SDS011;26987;59.928;30.306;2022-11-20T03:56:04;5.05;;;2.20;;
41253;SDS011;26987;59.928;30.306;2022-11-20T03:58:32;8.75;;;2.53;;
41253;SDS011;26987;59.928;30.306;2022-11-20T04:01:04;5.68;;;2.15;;
41253;SDS011;26987;59.928;30.306;2022-11-20T04:03:33;9.30;;;1.73;;
41253;SDS011;26987;59.928;30.306;2022-11-20T04:06:04;6.22;;;2.22;;
41253;SDS011;26987;59.928;30.306;2022-11-20T04:08:32;6.75;;;2.42;;
41253;SDS011;26987;59.928;30.306;2022-11-20T04:11:10;5.57;;;2.55;;
41253;SDS011;26987;59.928;30.306;2022-11-20T04:13:39;6.00;;;2.47;;
41253;SDS011;26987;59.928;30.306;2022-11-20T04:16:07;4.65;;;1.77;;
41253;SDS011;26987;59.928;30.306;2022-11-20T04:18:36;5.57;;;1.98;;
41253;SDS011;26987;59.928;30.306;2022-11-20T04:21:05;6.38;;;2.17;;
41253;SDS011;26987;59.928;30.306;2022-11-20T04:23:33;5.93;;;1.83;;
41253;SDS011;26987;59.928;30.306;2022-11-20T04:26:02;5.65;;;1.75;;
41253;SDS011;26987;59.928;30.306;2022-11-20T04:28:30;4.95;;;2.33;;
41253;SDS011;26987;59.928;30.306;2022-11-20T04:31:02;6.00;;;2.22;;
41253;SDS011;26987;59.928;30.306;2022-11-20T04:33:31;5.97;;;2.08;;
41253;SDS011;26987;59.928;30.306;2022-11-20T04:36:02;3.97;;;2.10;;
41253;SDS011;26987;59.928;30.306;2022-11-20T04:38:32;4.95;;;1.92;;
41253;SDS011;26987;59.928;30.306;2022-11-20T04:41:00;6.53;;;2.22;;
41253;SDS011;26987;59.928;30.306;2022-11-20T04:43:30;4.88;;;1.98;;
41253;SDS011;26987;59.928;30.306;2022-11-20T04:45:58;5.00;;;2.67;;
41253;SDS011;26987;59.928;30.306;2022-11-20T04:48:27;5.28;;;2.25;;
41253;SDS011;26987;59.928;30.306;2022-11-20T04:50:56;7.22;;;2.28;;
41253;SDS011;26987;59.928;30.306;2022-11-20T04:53:24;5.22;;;2.28;;
41253;SDS011;26987;59.928;30.306;2022-11-20T04:55:53;4.15;;;1.80;;
41253;SDS011;26987;59.928;30.306;2022-11-20T04:58:27;5.90;;;1.98;;
41253;SDS011;26987;59.928;30.306;2022-11-20T05:01:00;7.30;;;3.35;;
41253;SDS011;26987;59.928;30.306;2022-11-20T05:03:29;9.13;;;2.97;;
41253;SDS011;26987;59.928;30.306;2022-11-20T05:05:59;5.22;;;2.28;;
41253;SDS011;26987;59.928;30.306;2022-11-20T05:08:27;6.85;;;2.47;;
41253;SDS011;26987;59.928;30.306;2022-11-20T05:11:03;4.78;;;2.35;;
41253;SDS011;26987;59.928;30.306;2022-11-20T05:13:32;7.03;;;2.47;;
41253;SDS011;26987;59.928;30.306;2022-11-20T05:16:02;6.50;;;2.95;;
41253;SDS011;26987;59.928;30.306;2022-11-20T05:18:31;5.20;;;2.35;;
41253;SDS011;26987;59.928;30.306;2022-11-20T05:20:58;4.72;;;1.83;;
41253;SDS011;26987;59.928;30.306;2022-11-20T05:23:26;6.93;;;2.88;;
41253;SDS011;26987;59.928;30.306;2022-11-20T05:25:55;5.32;;;2.45;;
41253;SDS011;26987;59.928;30.306;2022-11-20T05:28:25;7.93;;;2.28;;
41253;SDS011;26987;59.928;30.306;2022-11-20T05:30:54;2.85;;;1.40;;
41253;SDS011;26987;59.928;30.306;2022-11-20T05:33:21;4.80;;;2.20;;
41253;SDS011;26987;59.928;30.306;2022-11-20T05:35:49;8.57;;;3.38;;
41253;SDS011;26987;59.928;30.306;2022-11-20T05:38:17;3.88;;;2.08;;
41253;SDS011;26987;59.928;30.306;2022-11-20T05:40:45;4.90;;;2.22;;
41253;SDS011;26987;59.928;30.306;2022-11-20T05:43:12;6.47;;;2.72;;
41253;SDS011;26987;59.928;30.306;2022-11-20T05:45:41;5.05;;;2.60;;
41253;SDS011;26987;59.928;30.306;2022-11-20T05:48:09;5.47;;;2.30;;
41253;SDS011;26987;59.928;30.306;2022-11-20T05:50:37;4.22;;;2.05;;
41253;SDS011;26987;59.928;30.306;2022-11-20T05:53:04;6.75;;;2.38;;
41253;SDS011;26987;59.928;30.306;2022-11-20T05:55:32;5.35;;;2.22;;
41253;SDS011;26987;59.928;30.306;2022-11-20T05:58:00;5.47;;;3.30;;
41253;SDS011;26987;59.928;30.306;2022-11-20T06:00:27;4.75;;;2.53;;
41253;SDS011;26987;59.928;30.306;2022-11-20T06:02:56;7.05;;;2.40;;
41253;SDS011;26987;59.928;30.306;2022-11-20T06:05:24;5.78;;;2.53;;
41253;SDS011;26987;59.928;30.306;2022-11-20T06:07:52;5.90;;;2.75;;
41253;SDS011;26987;59.928;30.306;2022-11-20T06:10:20;7.35;;;2.92;;
41253;SDS011;26987;59.928;30.306;2022-11-20T06:12:48;4.70;;;2.00;;
41253;SDS011;26987;59.928;30.306;2022-11-20T06:15:15;8.43;;;2.80;;
41253;SDS011;26987;59.928;30.306;2022-11-20T06:17:44;6.25;;;2.60;;
41253;SDS011;26987;59.928;30.306;2022-11-20T06:20:13;8.13;;;2.75;;
41253;SDS011;26987;59.928;30.306;2022-11-20T06:22:41;8.43;;;3.03;;
41253;SDS011;26987;59.928;30.306;2022-11-20T06:25:08;5.18;;;3.05;;
41253;SDS011;26987;59.928;30.306;2022-11-20T06:27:36;8.95;;;2.22;;
41253;SDS011;26987;59.928;30.306;2022-11-20T06:30:04;5.35;;;2.38;;
41253;SDS011;26987;59.928;30.306;2022-11-20T06:32:32;5.90;;;2.83;;
41253;SDS011;26987;59.928;30.306;2022-11-20T06:35:01;7.15;;;2.92;;
41253;SDS011;26987;59.928;30.306;2022-11-20T06:37:30;4.43;;;2.40;;
41253;SDS011;26987;59.928;30.306;2022-11-20T06:39:58;6.28;;;3.05;;
41253;SDS011;26987;59.928;30.306;2022-11-20T06:42:25;6.07;;;2.70;;
41253;SDS011;26987;59.928;30.306;2022-11-20T06:44:54;8.10;;;3.22;;
41253;SDS011;26987;59.928;30.306;2022-11-20T06:47:22;7.50;;;2.88;;
41253;SDS011;26987;59.928;30.306;2022-11-20T06:49:50;10.40;;;4.05;;
41253;SDS011;26987;59.928;30.306;2022-11-20T06:52:17;6.35;;;2.63;;
41253;SDS011;26987;59.928;30.306;2022-11-20T06:54:47;8.73;;;3.50;;
41253;SDS011;26987;59.928;30.306;2022-11-20T06:57:14;5.60;;;2.83;;
41253;SDS011;26987;59.928;30.306;2022-11-20T06:59:42;9.15;;;3.67;;
41253;SDS011;26987;59.928;30.306;2022-11-20T07:02:10;8.32;;;3.72;;
41253;SDS011;26987;59.928;30.306;2022-11-20T07:04:38;7.50;;;2.83;;
41253;SDS011;26987;59.928;30.306;2022-11-20T07:07:06;8.23;;;3.80;;
41253;SDS011;26987;59.928;30.306;2022-11-20T07:09:34;10.35;;;3.63;;
41253;SDS011;26987;59.928;30.306;2022-11-20T07:12:03;8.60;;;4.00;;
41253;SDS011;26987;59.928;30.306;2022-11-20T07:14:31;8.43;;;3.25;;
41253;SDS011;26987;59.928;30.306;2022-11-20T07:16:59;7.60;;;3.28;;
41253;SDS011;26987;59.928;30.306;2022-11-20T07:19:28;8.75;;;3.67;;
41253;SDS011;26987;59.928;30.306;2022-11-20T07:21:59;11.35;;;3.15;;
41253;SDS011;26987;59.928;30.306;2022-11-20T07:24:30;7.95;;;3.28;;
41253;SDS011;26987;59.928;30.306;2022-11-20T07:27:00;10.23;;;3.45;;
41253;SDS011;26987;59.928;30.306;2022-11-20T07:29:29;9.02;;;3.33;;
41253;SDS011;26987;59.928;30.306;2022-11-20T07:31:57;8.77;;;4.00;;
41253;SDS011;26987;59.928;30.306;2022-11-20T07:34:25;6.40;;;3.00;;
41253;SDS011;26987;59.928;30.306;2022-11-20T07:36:52;7.65;;;3.70;;
41253;SDS011;26987;59.928;30.306;2022-11-20T07:39:20;7.15;;;3.58;;
41253;SDS011;26987;59.928;30.306;2022-11-20T07:41:48;10.07;;;3.90;;
41253;SDS011;26987;59.928;30.306;2022-11-20T07:44:15;12.95;;;4.05;;
41253;SDS011;26987;59.928;30.306;2022-11-20T07:46:44;8.95;;;3.90;;
41253;SDS011;26987;59.928;30.306;2022-11-20T07:49:12;9.25;;;3.92;;
41253;SDS011;26987;59.928;30.306;2022-11-20T07:51:40;11.85;;;3.83;;
41253;SDS011;26987;59.928;30.306;2022-11-20T07:54:07;9.95;;;3.55;;
41253;SDS011;26987;59.928;30.306;2022-11-20T07:56:35;12.38;;;3.80;;
41253;SDS011;26987;59.928;30.306;2022-11-20T07:59:03;9.98;;;4.40;;
41253;SDS011;26987;59.928;30.306;2022-11-20T08:01:31;7.18;;;3.88;;
41253;SDS011;26987;59.928;30.306;2022-11-20T08:04:00;8.25;;;4.10;;
41253;SDS011;26987;59.928;30.306;2022-11-20T08:06:27;6.75;;;3.33;;
41253;SDS011;26987;59.928;30.306;2022-11-20T08:08:55;8.32;;;3.25;;
41253;SDS011;26987;59.928;30.306;2022-11-20T08:11:23;16.83;;;4.00;;
41253;SDS011;26987;59.928;30.306;2022-11-20T08:14:08;6.78;;;3.42;;
41253;SDS011;26987;59.928;30.306;2022-11-20T08:16:39;11.75;;;4.22;;
41253;SDS011;26987;59.928;30.306;2022-11-20T08:19:08;10.75;;;3.88;;
41253;SDS011;26987;59.928;30.306;2022-11-20T08:21:36;10.02;;;3.55;;
41253;SDS011;26987;59.928;30.306;2022-11-20T08:24:04;6.10;;;2.85;;
41253;SDS011;26987;59.928;30.306;2022-11-20T08:26:32;6.68;;;3.20;;
41253;SDS011;26987;59.928;30.306;2022-11-20T08:29:00;9.38;;;3.80;;
41253;SDS011;26987;59.928;30.306;2022-11-20T08:31:28;11.07;;;4.22;;
41253;SDS011;26987;59.928;30.306;2022-11-20T08:33:56;10.00;;;3.58;;
41253;SDS011;26987;59.928;30.306;2022-11-20T08:36:25;12.32;;;3.83;;
41253;SDS011;26987;59.928;30.306;2022-11-20T08:38:54;9.80;;;4.25;;
41253;SDS011;26987;59.928;30.306;2022-11-20T08:41:22;10.38;;;3.28;;
41253;SDS011;26987;59.928;30.306;2022-11-20T08:43:54;11.00;;;3.70;;
41253;SDS011;26987;59.928;30.306;2022-11-20T08:46:23;11.00;;;5.15;;
41253;SDS011;26987;59.928;30.306;2022-11-20T08:48:52;8.55;;;3.63;;
41253;SDS011;26987;59.928;30.306;2022-11-20T08:51:20;11.85;;;4.18;;
41253;SDS011;26987;59.928;30.306;2022-11-20T08:53:49;9.18;;;4.93;;
41253;SDS011;26987;59.928;30.306;2022-11-20T08:56:17;12.95;;;5.45;;
41253;SDS011;26987;59.928;30.306;2022-11-20T08:58:45;14.23;;;5.70;;
41253;SDS011;26987;59.928;30.306;2022-11-20T09:01:12;17.05;;;5.55;;
41253;SDS011;26987;59.928;30.306;2022-11-20T09:03:40;11.05;;;4.35;;
41253;SDS011;26987;59.928;30.306;2022-11-20T09:06:08;12.48;;;5.18;;
41253;SDS011;26987;59.928;30.306;2022-11-20T09:08:35;12.52;;;4.70;;
41253;SDS011;26987;59.928;30.306;2022-11-20T09:11:05;8.45;;;4.10;;
41253;SDS011;26987;59.928;30.306;2022-11-20T09:13:33;8.20;;;3.28;;
41253;SDS011;26987;59.928;30.306;2022-11-20T09:16:03;10.80;;;4.70;;
41253;SDS011;26987;59.928;30.306;2022-11-20T09:18:33;9.30;;;3.78;;
41253;SDS011;26987;59.928;30.306;2022-11-20T09:21:04;10.20;;;5.30;;
41253;SDS011;26987;59.928;30.306;2022-11-20T09:23:33;15.63;;;5.20;;
41253;SDS011;26987;59.928;30.306;2022-11-20T09:26:03;12.32;;;4.00;;
41253;SDS011;26987;59.928;30.306;2022-11-20T09:28:33;9.32;;;3.60;;
41253;SDS011;26987;59.928;30.306;2022-11-20T09:31:04;9.75;;;3.65;;
41253;SDS011;26987;59.928;30.306;2022-11-20T09:33:33;10.13;;;3.60;;
41253;SDS011;26987;59.928;30.306;2022-11-20T09:36:00;11.88;;;3.75;;
41253;SDS011;26987;59.928;30.306;2022-11-20T09:38:28;8.55;;;3.55;;
41253;SDS011;26987;59.928;30.306;2022-11-20T09:40:57;10.00;;;3.65;;
41253;SDS011;26987;59.928;30.306;2022-11-20T09:43:37;12.80;;;4.72;;
41253;SDS011;26987;59.928;30.306;2022-11-20T09:46:13;14.07;;;4.40;;
41253;SDS011;26987;59.928;30.306;2022-11-20T09:48:53;10.25;;;4.10;;
41253;SDS011;26987;59.928;30.306;2022-11-20T09:51:33;10.25;;;3.60;;
41253;SDS011;26987;59.928;30.306;2022-11-20T09:54:11;12.15;;;4.60;;
41253;SDS011;26987;59.928;30.306;2022-11-20T09:56:45;12.75;;;4.13;;
41253;SDS011;26987;59.928;30.306;2022-11-20T09:59:20;8.82;;;3.25;;
41253;SDS011;26987;59.928;30.306;2022-11-20T10:01:56;17.45;;;5.25;;
41253;SDS011;26987;59.928;30.306;2022-11-20T10:04:26;12.52;;;5.03;;
41253;SDS011;26987;59.928;30.306;2022-11-20T10:07:01;10.75;;;4.13;;
41253;SDS011;26987;59.928;30.306;2022-11-20T10:09:34;14.43;;;5.40;;
41253;SDS011;26987;59.928;30.306;2022-11-20T10:12:06;10.93;;;4.75;;
41253;SDS011;26987;59.928;30.306;2022-11-20T10:14:48;11.75;;;4.28;;
41253;SDS011;26987;59.928;30.306;2022-11-20T10:17:26;12.15;;;4.63;;
41253;SDS011;26987;59.928;30.306;2022-11-20T10:20:12;13.45;;;4.00;;
41253;SDS011;26987;59.928;30.306;2022-11-20T10:22:50;33.08;;;4.85;;
41253;SDS011;26987;59.928;30.306;2022-11-20T10:25:32;12.93;;;4.53;;
41253;SDS011;26987;59.928;30.306;2022-11-20T10:28:08;12.70;;;3.83;;
41253;SDS011;26987;59.928;30.306;2022-11-20T10:30:45;12.90;;;4.68;;
41253;SDS011;26987;59.928;30.306;2022-11-20T10:33:17;10.70;;;5.05;;
41253;SDS011;26987;59.928;30.306;2022-11-20T10:35:49;9.45;;;4.05;;
41253;SDS011;26987;59.928;30.306;2022-11-20T10:38:23;12.40;;;5.05;;
41253;SDS011;26987;59.928;30.306;2022-11-20T10:43:46;10.85;;;3.75;;
41253;SDS011;26987;59.928;30.306;2022-11-20T10:46:19;12.35;;;3.80;;
41253;SDS011;26987;59.928;30.306;2022-11-20T10:48:49;10.32;;;3.83;;
41253;SDS011;26987;59.928;30.306;2022-11-20T10:51:28;8.77;;;4.13;;
41253;SDS011;26987;59.928;30.306;2022-11-20T10:54:06;12.70;;;3.80;;
41253;SDS011;26987;59.928;30.306;2022-11-20T10:56:45;8.27;;;4.15;;
41253;SDS011;26987;59.928;30.306;2022-11-20T10:59:22;7.90;;;3.70;;
41253;SDS011;26987;59.928;30.306;2022-11-20T11:02:01;8.70;;;3.70;;
41253;SDS011;26987;59.928;30.306;2022-11-20T11:04:34;8.35;;;3.92;;
41253;SDS011;26987;59.928;30.306;2022-11-20T11:07:06;9.43;;;4.30;;
41253;SDS011;26987;59.928;30.306;2022-11-20T11:09:39;12.10;;;4.18;;
41253;SDS011;26987;59.928;30.306;2022-11-20T11:12:11;9.13;;;4.13;;
41253;SDS011;26987;59.928;30.306;2022-11-20T11:14:42;8.07;;;4.20;;
41253;SDS011;26987;59.928;30.306;2022-11-20T11:17:20;10.23;;;4.13;;
41253;SDS011;26987;59.928;30.306;2022-11-20T11:20:05;7.40;;;2.97;;
41253;SDS011;26987;59.928;30.306;2022-11-20T11:22:43;10.07;;;4.47;;
41253;SDS011;26987;59.928;30.306;2022-11-20T11:25:23;9.38;;;4.25;;
41253;SDS011;26987;59.928;30.306;2022-11-20T11:27:53;12.07;;;4.80;;
41253;SDS011;26987;59.928;30.306;2022-11-20T11:30:23;9.55;;;4.40;;
41253;SDS011;26987;59.928;30.306;2022-11-20T11:33:03;14.43;;;4.78;;
41253;SDS011;26987;59.928;30.306;2022-11-20T11:35:32;12.13;;;4.30;;
41253;SDS011;26987;59.928;30.306;2022-11-20T11:38:03;12.88;;;5.45;;
41253;SDS011;26987;59.928;30.306;2022-11-20T11:40:33;10.30;;;5.07;;
41253;SDS011;26987;59.928;30.306;2022-11-20T11:43:04;9.80;;;4.35;;
41253;SDS011;26987;59.928;30.306;2022-11-20T11:45:54;9.63;;;4.18;;
41253;SDS011;26987;59.928;30.306;2022-11-20T11:48:25;9.35;;;4.22;;
41253;SDS011;26987;59.928;30.306;2022-11-20T11:50:52;9.48;;;4.20;;
41253;SDS011;26987;59.928;30.306;2022-11-20T11:53:21;15.52;;;5.30;;
41253;SDS011;26987;59.928;30.306;2022-11-20T11:55:52;8.40;;;4.43;;
41253;SDS011;26987;59.928;30.306;2022-11-20T11:58:34;10.32;;;4.35;;
41253;SDS011;26987;59.928;30.306;2022-11-20T12:01:14;18.08;;;7.28;;
41253;SDS011;26987;59.928;30.306;2022-11-20T12:03:55;11.07;;;4.90;;
41253;SDS011;26987;59.928;30.306;2022-11-20T12:06:31;12.18;;;5.40;;
41253;SDS011;26987;59.928;30.306;2022-11-20T12:09:02;11.73;;;4.95;;
41253;SDS011;26987;59.928;30.306;2022-11-20T12:11:33;14.80;;;5.47;;
41253;SDS011;26987;59.928;30.306;2022-11-20T12:14:09;14.55;;;5.38;;
41253;SDS011;26987;59.928;30.306;2022-11-20T12:16:43;14.30;;;5.28;;
41253;SDS011;26987;59.928;30.306;2022-11-20T12:19:12;11.05;;;4.70;;
41253;SDS011;26987;59.928;30.306;2022-11-20T12:21:45;12.25;;;4.22;;
41253;SDS011;26987;59.928;30.306;2022-11-20T12:24:26;11.75;;;5.38;;
41253;SDS011;26987;59.928;30.306;2022-11-20T12:27:12;10.65;;;4.60;;
41253;SDS011;26987;59.928;30.306;2022-11-20T12:30:04;25.13;;;8.45;;
41253;SDS011;26987;59.928;30.306;2022-11-20T12:32:43;13.85;;;5.10;;
41253;SDS011;26987;59.928;30.306;2022-11-20T12:35:32;11.13;;;5.05;;
41253;SDS011;26987;59.928;30.306;2022-11-20T12:41:27;15.30;;;5.82;;
41253;SDS011;26987;59.928;30.306;2022-11-20T12:44:33;11.57;;;5.03;;
41253;SDS011;26987;59.928;30.306;2022-11-20T12:47:31;13.90;;;5.07;;
41253;SDS011;26987;59.928;30.306;2022-11-20T12:50:14;13.15;;;5.47;;
41253;SDS011;26987;59.928;30.306;2022-11-20T12:52:52;12.40;;;4.50;;
41253;SDS011;26987;59.928;30.306;2022-11-20T12:55:32;10.40;;;4.50;;
41253;SDS011;26987;59.928;30.306;2022-11-20T12:58:10;11.35;;;4.50;;
41253;SDS011;26987;59.928;30.306;2022-11-20T13:00:47;11.07;;;4.72;;
41253;SDS011;26987;59.928;30.306;2022-11-20T13:03:30;15.57;;;5.00;;
41253;SDS011;26987;59.928;30.306;2022-11-20T13:06:05;11.68;;;5.15;;
41253;SDS011;26987;59.928;30.306;2022-11-20T13:08:43;11.48;;;5.50;;
41253;SDS011;26987;59.928;30.306;2022-11-20T13:11:17;17.73;;;5.30;;
41253;SDS011;26987;59.928;30.306;2022-11-20T13:13:55;19.15;;;5.72;;
41253;SDS011;26987;59.928;30.306;2022-11-20T13:16:33;12.73;;;5.65;;
41253;SDS011;26987;59.928;30.306;2022-11-20T13:19:05;12.77;;;5.25;;
41253;SDS011;26987;59.928;30.306;2022-11-20T13:21:39;10.23;;;5.18;;
41253;SDS011;26987;59.928;30.306;2022-11-20T13:24:21;11.30;;;5.38;;
41253;SDS011;26987;59.928;30.306;2022-11-20T13:27:02;11.40;;;5.63;;
41253;SDS011;26987;59.928;30.306;2022-11-20T13:29:32;12.90;;;5.70;;
41253;SDS011;26987;59.928;30.306;2022-11-20T13:32:04;17.98;;;5.35;;
41253;SDS011;26987;59.928;30.306;2022-11-20T13:34:34;17.15;;;6.38;;
41253;SDS011;26987;59.928;30.306;2022-11-20T13:37:02;15.65;;;5.60;;
41253;SDS011;26987;59.928;30.306;2022-11-20T13:39:33;13.30;;;6.38;;
41253;SDS011;26987;59.928;30.306;2022-11-20T13:42:03;18.45;;;5.95;;
41253;SDS011;26987;59.928;30.306;2022-11-20T13:44:51;12.07;;;5.28;;
41253;SDS011;26987;59.928;30.306;2022-11-20T13:47:22;12.52;;;5.45;;
41253;SDS011;26987;59.928;30.306;2022-11-20T13:49:51;11.30;;;5.43;;
41253;SDS011;26987;59.928;30.306;2022-11-20T13:52:29;13.45;;;5.35;;
41253;SDS011;26987;59.928;30.306;2022-11-20T13:55:12;14.83;;;5.67;;
41253;SDS011;26987;59.928;30.306;2022-11-20T14:00:43;16.02;;;5.60;;
41253;SDS011;26987;59.928;30.306;2022-11-20T14:03:16;13.15;;;6.32;;
41253;SDS011;26987;59.928;30.306;2022-11-20T14:05:49;13.68;;;5.95;;
41253;SDS011;26987;59.928;30.306;2022-11-20T14:08:27;12.02;;;6.57;;
41253;SDS011;26987;59.928;30.306;2022-11-20T14:11:06;14.05;;;5.72;;
41253;SDS011;26987;59.928;30.306;2022-11-20T14:13:50;13.18;;;6.90;;
41253;SDS011;26987;59.928;30.306;2022-11-20T14:16:23;16.10;;;6.28;;
41253;SDS011;26987;59.928;30.306;2022-11-20T14:18:52;12.68;;;5.90;;
41253;SDS011;26987;59.928;30.306;2022-11-20T14:21:21;12.38;;;6.45;;
41253;SDS011;26987;59.928;30.306;2022-11-20T14:23:52;13.73;;;7.18;;
41253;SDS011;26987;59.928;30.306;2022-11-20T14:26:22;13.82;;;6.50;;
41253;SDS011;26987;59.928;30.306;2022-11-20T14:28:50;16.55;;;6.68;;
41253;SDS011;26987;59.928;30.306;2022-11-20T14:31:21;15.43;;;6.90;;
41253;SDS011;26987;59.928;30.306;2022-11-20T14:33:52;17.63;;;8.15;;
41253;SDS011;26987;59.928;30.306;2022-11-20T14:36:22;19.35;;;9.27;;
41253;SDS011;26987;59.928;30.306;2022-11-20T14:38:51;20.10;;;7.47;;
41253;SDS011;26987;59.928;30.306;2022-11-20T14:41:22;14.43;;;7.18;;
41253;SDS011;26987;59.928;30.306;2022-11-20T14:43:51;22.13;;;8.50;;
41253;SDS011;26987;59.928;30.306;2022-11-20T14:46:23;14.20;;;8.00;;
41253;SDS011;26987;59.928;30.306;2022-11-20T14:48:51;18.20;;;8.68;;
41253;SDS011;26987;59.928;30.306;2022-11-20T14:51:30;15.40;;;7.63;;
41253;SDS011;26987;59.928;30.306;2022-11-20T14:54:09;15.63;;;8.93;;
41253;SDS011;26987;59.928;30.306;2022-11-20T14:56:39;19.58;;;8.68;;
41253;SDS011;26987;59.928;30.306;2022-11-20T14:59:07;17.02;;;8.10;;
41253;SDS011;26987;59.928;30.306;2022-11-20T15:01:35;16.92;;;8.60;;
41253;SDS011;26987;59.928;30.306;2022-11-20T15:04:05;15.70;;;8.23;;